createdAt,value
2022-10-10T00:00:33.480Z,20.02
2022-10-10T00:01:33.510Z,20.02
2022-10-10T00:02:33.459Z,20.00
2022-10-10T00:03:33.450Z,20.00
2022-10-10T00:04:33.461Z,20.00
2022-10-10T00:05:33.428Z,20.00
2022-10-10T00:06:33.728Z,20.00
2022-10-10T00:07:33.406Z,20.00
2022-10-10T00:08:33.414Z,19.99
2022-10-10T00:09:33.383Z,20.00
2022-10-10T00:10:33.392Z,20.02
2022-10-10T00:11:33.361Z,20.02
2022-10-10T00:12:33.372Z,20.02
2022-10-10T00:13:33.338Z,20.02
2022-10-10T00:14:33.358Z,20.00
2022-10-10T00:15:33.316Z,20.02
2022-10-10T00:16:33.305Z,20.00
2022-10-10T00:17:33.294Z,20.00
2022-10-10T00:18:33.285Z,20.02
2022-10-10T00:19:33.295Z,20.00
2022-10-10T00:20:33.261Z,19.99
2022-10-10T00:21:33.249Z,20.00
2022-10-10T00:22:33.241Z,20.00
2022-10-10T00:23:33.228Z,20.00
2022-10-10T00:24:33.245Z,20.02
2022-10-10T00:25:33.208Z,20.00
2022-10-10T00:26:33.195Z,20.00
2022-10-10T00:27:33.183Z,19.99
2022-10-10T00:28:33.220Z,20.00
2022-10-10T00:29:33.184Z,20.00
2022-10-10T00:30:33.154Z,20.00
2022-10-10T00:31:33.151Z,20.00
2022-10-10T00:32:33.130Z,20.00
2022-10-10T00:33:33.120Z,20.00
2022-10-10T00:34:33.144Z,20.00
2022-10-10T00:35:33.095Z,20.02
2022-10-10T00:36:33.087Z,20.00
2022-10-10T00:37:33.076Z,20.00
2022-10-10T00:38:33.067Z,19.99
2022-10-10T00:39:33.052Z,19.99
2022-10-10T00:40:33.065Z,20.00
2022-10-10T00:41:33.031Z,20.00
2022-10-10T00:42:33.024Z,20.00
2022-10-10T00:43:33.008Z,20.00
2022-10-10T00:44:33.049Z,20.00
2022-10-10T00:45:32.989Z,20.00
2022-10-10T00:46:32.978Z,20.00
2022-10-10T00:47:32.985Z,20.02
2022-10-10T00:48:32.953Z,20.00
2022-10-10T00:49:32.942Z,20.00
2022-10-10T00:50:32.936Z,20.00
2022-10-10T00:51:32.943Z,20.00
2022-10-10T00:52:32.913Z,20.02
2022-10-10T00:53:32.899Z,20.00
2022-10-10T00:54:32.888Z,20.00
2022-10-10T00:55:32.876Z,20.00
2022-10-10T00:56:32.889Z,20.00
2022-10-10T00:57:32.855Z,20.00
2022-10-10T00:58:32.866Z,20.00
2022-10-10T00:59:32.831Z,20.00
2022-10-10T01:00:32.846Z,20.00
2022-10-10T01:01:32.813Z,20.00
2022-10-10T01:02:32.830Z,20.00
2022-10-10T01:03:32.810Z,19.99
2022-10-10T01:04:32.777Z,20.00
2022-10-10T01:05:32.765Z,20.00
2022-10-10T01:06:32.756Z,19.99
2022-10-10T01:07:32.766Z,20.00
2022-10-10T01:08:32.756Z,20.00
2022-10-10T01:09:32.722Z,20.00
2022-10-10T01:10:32.715Z,20.00
2022-10-10T01:11:32.700Z,20.00
2022-10-10T01:12:32.692Z,20.02
2022-10-10T01:13:32.715Z,19.99
2022-10-10T01:14:32.669Z,20.00
2022-10-10T01:15:32.659Z,20.00
2022-10-10T01:16:32.670Z,20.00
2022-10-10T01:17:32.635Z,20.00
2022-10-10T01:18:32.629Z,20.02
2022-10-10T01:19:32.636Z,20.00
2022-10-10T01:20:32.604Z,19.99
2022-10-10T01:21:32.591Z,20.00
2022-10-10T01:22:32.616Z,19.99
2022-10-10T01:23:32.569Z,19.99
2022-10-10T01:24:32.561Z,19.99
2022-10-10T01:25:32.550Z,20.00
2022-10-10T01:26:32.539Z,20.00
2022-10-10T01:27:32.528Z,20.00
2022-10-10T01:28:32.577Z,20.00
2022-10-10T01:29:32.504Z,20.00
2022-10-10T01:30:32.495Z,20.00
2022-10-10T01:31:32.483Z,20.00
2022-10-10T01:32:32.495Z,20.00
2022-10-10T01:33:32.486Z,19.99
2022-10-10T01:34:32.455Z,19.99
2022-10-10T01:35:32.438Z,19.99
2022-10-10T01:36:32.430Z,19.99
2022-10-10T01:37:32.439Z,20.00
2022-10-10T01:38:32.434Z,19.99
2022-10-10T01:39:32.416Z,20.00
2022-10-10T01:40:32.383Z,19.96
2022-10-10T01:41:32.371Z,19.99
2022-10-10T01:42:32.361Z,20.00
2022-10-10T01:43:32.370Z,19.99
2022-10-10T01:44:32.338Z,19.99
2022-10-10T01:45:32.326Z,20.00
2022-10-10T01:46:32.323Z,19.99
2022-10-10T01:47:32.304Z,19.99
2022-10-10T01:48:32.356Z,19.99
2022-10-10T01:49:32.283Z,19.96
2022-10-10T01:50:32.273Z,20.00
2022-10-10T01:51:32.263Z,20.00
2022-10-10T01:52:32.261Z,20.00
2022-10-10T01:53:32.238Z,19.99
2022-10-10T01:54:32.253Z,20.00
2022-10-10T01:55:32.240Z,19.99
2022-10-10T01:56:32.226Z,19.99
2022-10-10T01:57:32.197Z,19.99
2022-10-10T01:58:32.187Z,19.99
2022-10-10T01:59:32.173Z,20.00
2022-10-10T02:00:32.163Z,19.99
2022-10-10T02:01:32.176Z,20.00
2022-10-10T02:02:32.141Z,20.00
2022-10-10T02:03:32.128Z,19.99
2022-10-10T02:04:32.142Z,19.99
2022-10-10T02:05:32.107Z,20.00
2022-10-10T02:06:32.133Z,19.99
2022-10-10T02:07:32.083Z,19.99
2022-10-10T02:08:32.075Z,19.99
2022-10-10T02:09:32.061Z,19.99
2022-10-10T02:10:32.059Z,19.99
2022-10-10T02:11:32.039Z,19.99
2022-10-10T02:12:32.062Z,19.99
2022-10-10T02:13:32.018Z,19.99
2022-10-10T02:14:32.006Z,19.96
2022-10-10T02:15:31.994Z,19.99
2022-10-10T02:16:31.983Z,19.99
2022-10-10T02:17:31.971Z,19.99
2022-10-10T02:18:31.984Z,19.99
2022-10-10T02:19:31.949Z,19.99
2022-10-10T02:20:31.988Z,20.00
2022-10-10T02:21:31.930Z,19.99
2022-10-10T02:22:31.937Z,19.99
2022-10-10T02:23:31.909Z,19.99
2022-10-10T02:24:31.896Z,20.00
2022-10-10T02:25:31.885Z,19.99
2022-10-10T02:26:31.872Z,19.99
2022-10-10T02:27:31.887Z,19.96
2022-10-10T02:28:31.900Z,19.96
2022-10-10T02:29:31.841Z,20.00
2022-10-10T02:30:31.828Z,19.99
2022-10-10T02:31:31.817Z,19.96
2022-10-10T02:32:31.827Z,19.96
2022-10-10T02:33:31.794Z,19.99
2022-10-10T02:34:31.784Z,19.96
2022-10-10T02:35:31.773Z,19.99
2022-10-10T02:36:31.809Z,19.99
2022-10-10T02:37:31.752Z,19.99
2022-10-10T02:38:31.761Z,19.99
2022-10-10T02:39:31.751Z,19.99
2022-10-10T02:40:31.731Z,19.99
2022-10-10T02:41:31.706Z,19.99
2022-10-10T02:42:31.698Z,19.96
2022-10-10T02:43:31.708Z,19.96
2022-10-10T02:44:31.672Z,19.99
2022-10-10T02:45:31.663Z,19.99
2022-10-10T02:46:31.651Z,19.99
2022-10-10T02:47:31.644Z,19.96
2022-10-10T02:48:31.651Z,19.99
2022-10-10T02:49:31.619Z,19.99
2022-10-10T02:50:31.609Z,19.96
2022-10-10T02:51:31.619Z,19.96
2022-10-10T02:52:31.608Z,19.96
2022-10-10T02:53:31.574Z,19.96
2022-10-10T02:54:31.563Z,19.96
2022-10-10T02:55:31.554Z,19.99
2022-10-10T02:56:31.565Z,19.99
2022-10-10T02:57:31.536Z,19.96
2022-10-10T02:58:31.520Z,19.99
2022-10-10T02:59:31.507Z,19.96
2022-10-10T03:00:31.520Z,19.99
2022-10-10T03:01:31.565Z,19.96
2022-10-10T03:02:31.495Z,19.96
2022-10-10T03:03:31.465Z,19.96
2022-10-10T03:04:31.452Z,19.96
2022-10-10T03:05:31.440Z,19.96
2022-10-10T03:06:31.430Z,19.96
2022-10-10T03:07:31.446Z,19.96
2022-10-10T03:08:31.432Z,19.96
2022-10-10T03:09:31.402Z,19.95
2022-10-10T03:10:31.386Z,19.96
2022-10-10T03:11:31.375Z,19.96
2022-10-10T03:12:31.394Z,19.99
2022-10-10T03:13:31.352Z,19.99
2022-10-10T03:14:31.341Z,19.96
2022-10-10T03:15:31.331Z,19.96
2022-10-10T03:16:31.340Z,19.96
2022-10-10T03:17:31.331Z,19.96
2022-10-10T03:18:31.295Z,19.99
2022-10-10T03:19:31.287Z,19.96
2022-10-10T03:20:31.273Z,19.95
2022-10-10T03:21:31.286Z,19.99
2022-10-10T03:22:31.251Z,19.95
2022-10-10T03:23:31.262Z,19.96
2022-10-10T03:24:31.254Z,19.96
2022-10-10T03:25:31.219Z,19.95
2022-10-10T03:26:31.207Z,19.96
2022-10-10T03:27:31.198Z,19.96
2022-10-10T03:28:31.293Z,19.96
2022-10-10T03:29:31.178Z,19.99
2022-10-10T03:30:31.162Z,19.99
2022-10-10T03:31:31.152Z,19.96
2022-10-10T03:32:31.140Z,19.96
2022-10-10T03:33:31.159Z,19.95
2022-10-10T03:34:31.119Z,19.99
2022-10-10T03:35:31.148Z,19.96
2022-10-10T03:36:31.098Z,19.96
2022-10-10T03:37:31.090Z,19.95
2022-10-10T03:38:31.075Z,19.96
2022-10-10T03:39:31.065Z,19.96
2022-10-10T03:40:31.105Z,19.95
2022-10-10T03:41:31.044Z,19.99
2022-10-10T03:42:31.029Z,19.95
2022-10-10T03:43:31.021Z,19.95
2022-10-10T03:44:31.008Z,19.96
2022-10-10T03:45:31.033Z,19.95
2022-10-10T03:46:30.986Z,19.96
2022-10-10T03:47:30.975Z,19.94
2022-10-10T03:48:30.963Z,19.95
2022-10-10T03:49:30.955Z,19.95
2022-10-10T03:50:30.992Z,19.95
2022-10-10T03:51:30.930Z,19.96
2022-10-10T03:52:30.919Z,19.96
2022-10-10T03:53:30.913Z,19.95
2022-10-10T03:54:30.897Z,19.96
2022-10-10T03:55:30.886Z,19.95
2022-10-10T03:56:30.924Z,19.95
2022-10-10T03:57:30.865Z,19.95
2022-10-10T03:58:30.850Z,19.96
2022-10-10T03:59:30.842Z,19.96
2022-10-10T04:00:30.830Z,19.95
2022-10-10T04:01:30.955Z,19.95
2022-10-10T04:02:30.836Z,19.96
2022-10-10T04:03:30.799Z,19.95
2022-10-10T04:04:30.786Z,19.96
2022-10-10T04:05:30.776Z,19.95
2022-10-10T04:06:30.763Z,19.95
2022-10-10T04:07:30.784Z,19.95
2022-10-10T04:08:30.740Z,19.95
2022-10-10T04:09:30.734Z,19.95
2022-10-10T04:10:30.720Z,19.99
2022-10-10T04:11:30.715Z,19.95
2022-10-10T04:12:30.750Z,19.95
2022-10-10T04:13:30.717Z,19.95
2022-10-10T04:14:30.674Z,19.95
2022-10-10T04:15:30.666Z,19.96
2022-10-10T04:16:30.652Z,19.95
2022-10-10T04:17:30.647Z,19.95
2022-10-10T04:18:30.658Z,19.96
2022-10-10T04:19:30.621Z,19.95
2022-10-10T04:20:30.610Z,19.95
2022-10-10T04:21:30.599Z,19.95
2022-10-10T04:22:30.585Z,19.94
2022-10-10T04:23:30.604Z,19.94
2022-10-10T04:24:30.563Z,19.94
2022-10-10T04:25:30.554Z,19.94
2022-10-10T04:26:30.547Z,19.94
2022-10-10T04:27:30.534Z,19.95
2022-10-10T04:28:30.643Z,19.95
2022-10-10T04:29:30.509Z,19.95
2022-10-10T04:30:30.506Z,19.94
2022-10-10T04:31:30.487Z,19.95
2022-10-10T04:32:30.475Z,19.95
2022-10-10T04:33:30.466Z,19.95
2022-10-10T04:34:30.483Z,19.95
2022-10-10T04:35:30.445Z,19.94
2022-10-10T04:36:30.431Z,19.95
2022-10-10T04:37:30.419Z,19.95
2022-10-10T04:38:30.410Z,19.95
2022-10-10T04:39:30.451Z,19.95
2022-10-10T04:40:30.387Z,19.94
2022-10-10T04:41:30.380Z,19.95
2022-10-10T04:42:30.364Z,19.94
2022-10-10T04:43:30.355Z,19.92
2022-10-10T04:44:30.365Z,19.95
2022-10-10T04:45:33.998Z,19.95
2022-10-10T04:46:31.319Z,19.94
2022-10-10T04:47:30.311Z,19.94
2022-10-10T04:48:30.297Z,19.95
2022-10-10T04:49:30.287Z,19.94
2022-10-10T04:50:30.304Z,19.94
2022-10-10T04:51:30.265Z,19.94
2022-10-10T04:52:30.254Z,19.95
2022-10-10T04:53:30.244Z,19.94
2022-10-10T04:54:30.231Z,19.92
2022-10-10T04:55:30.251Z,19.94
2022-10-10T04:56:30.211Z,19.94
2022-10-10T04:57:30.199Z,19.92
2022-10-10T04:58:30.186Z,19.94
2022-10-10T04:59:30.177Z,19.95
2022-10-10T05:00:30.235Z,19.94
2022-10-10T05:01:30.246Z,19.94
2022-10-10T05:02:30.144Z,19.94
2022-10-10T05:03:30.132Z,19.94
2022-10-10T05:04:30.119Z,19.94
2022-10-10T05:05:30.139Z,19.92
2022-10-10T05:06:30.096Z,19.94
2022-10-10T05:07:30.088Z,19.94
2022-10-10T05:08:30.075Z,19.94
2022-10-10T05:09:30.065Z,19.95
2022-10-10T05:10:30.081Z,19.94
2022-10-10T05:11:30.043Z,19.94
2022-10-10T05:12:30.029Z,19.95
2022-10-10T05:13:30.021Z,19.94
2022-10-10T05:14:30.008Z,19.95
2022-10-10T05:15:30.029Z,19.94
2022-10-10T05:16:30.036Z,19.94
2022-10-10T05:17:29.976Z,19.94
2022-10-10T05:18:29.965Z,19.94
2022-10-10T05:19:29.955Z,19.92
2022-10-10T05:20:29.941Z,19.94
2022-10-10T05:21:29.963Z,19.94
2022-10-10T05:22:29.921Z,19.94
2022-10-10T05:23:29.914Z,19.94
2022-10-10T05:24:29.900Z,19.95
2022-10-10T05:25:29.886Z,19.92
2022-10-10T05:26:29.906Z,19.94
2022-10-10T05:27:29.869Z,19.94
2022-10-10T05:28:29.943Z,19.94
2022-10-10T05:29:29.847Z,19.92
2022-10-10T05:30:29.829Z,19.92
2022-10-10T05:31:29.822Z,19.94
2022-10-10T05:32:29.830Z,19.94
2022-10-10T05:33:29.826Z,19.94
2022-10-10T05:34:29.787Z,19.92
2022-10-10T05:35:29.779Z,19.94
2022-10-10T05:36:29.765Z,19.94
2022-10-10T05:37:29.760Z,19.94
2022-10-10T05:38:29.777Z,19.92
2022-10-10T05:39:29.731Z,19.94
2022-10-10T05:40:29.721Z,19.94
2022-10-10T05:41:29.710Z,19.94
2022-10-10T05:42:29.700Z,19.92
2022-10-10T05:43:29.734Z,19.92
2022-10-10T05:44:29.675Z,19.94
2022-10-10T05:45:29.664Z,19.92
2022-10-10T05:46:29.653Z,19.94
2022-10-10T05:47:29.651Z,19.92
2022-10-10T05:48:29.654Z,19.92
2022-10-10T05:49:29.652Z,19.92
2022-10-10T05:50:29.609Z,19.94
2022-10-10T05:51:29.598Z,19.92
2022-10-10T05:52:29.588Z,19.91
2022-10-10T05:53:29.577Z,19.92
2022-10-10T05:54:29.595Z,19.92
2022-10-10T05:55:29.583Z,19.92
2022-10-10T05:56:29.542Z,19.92
2022-10-10T05:57:29.532Z,19.94
2022-10-10T05:58:29.521Z,19.92
2022-10-10T05:59:29.513Z,19.91
2022-10-10T06:00:29.535Z,19.92
2022-10-10T06:01:29.489Z,19.92
2022-10-10T06:02:29.514Z,19.92
2022-10-10T06:03:29.469Z,19.92
2022-10-10T06:04:29.474Z,19.94
2022-10-10T06:05:29.471Z,19.92
2022-10-10T06:06:29.435Z,19.91
2022-10-10T06:07:45.881Z,19.92
2022-10-10T06:08:30.405Z,19.92
2022-10-10T06:09:29.400Z,19.92
2022-10-10T06:10:29.419Z,19.91
2022-10-10T06:11:29.404Z,19.92
2022-10-10T06:12:29.366Z,19.92
2022-10-10T06:13:29.353Z,19.92
2022-10-10T06:14:29.346Z,19.92
2022-10-10T06:15:29.333Z,19.92
2022-10-10T06:16:29.352Z,19.92
2022-10-10T06:17:29.310Z,19.92
2022-10-10T06:18:29.299Z,19.91
2022-10-10T06:19:29.288Z,19.91
2022-10-10T06:20:29.302Z,19.92
2022-10-10T06:21:29.293Z,19.92
2022-10-10T06:22:29.286Z,19.92
2022-10-10T06:23:29.245Z,19.91
2022-10-10T06:24:29.235Z,19.91
2022-10-10T06:25:39.945Z,19.92
2022-10-10T06:26:30.209Z,19.91
2022-10-10T06:27:29.241Z,19.92
2022-10-10T06:28:29.237Z,19.92
2022-10-10T06:29:29.175Z,19.92
2022-10-10T06:30:29.167Z,19.92
2022-10-10T06:31:29.158Z,19.92
2022-10-10T06:32:29.195Z,19.92
2022-10-10T06:33:29.133Z,19.92
2022-10-10T06:34:29.121Z,19.92
2022-10-10T06:35:29.111Z,19.92
2022-10-10T06:36:29.121Z,19.92
2022-10-10T06:37:29.087Z,19.91
2022-10-10T06:38:29.105Z,19.91
2022-10-10T06:39:29.067Z,19.92
2022-10-10T06:40:29.054Z,19.91
2022-10-10T06:41:29.043Z,19.91
2022-10-10T06:42:29.032Z,19.92
2022-10-10T06:43:29.054Z,19.91
2022-10-10T06:44:29.009Z,19.92
2022-10-10T06:45:28.999Z,19.91
2022-10-10T06:46:28.990Z,19.94
2022-10-10T06:47:28.978Z,19.92
2022-10-10T06:48:28.999Z,19.92
2022-10-10T06:49:28.955Z,19.94
2022-10-10T06:50:28.944Z,19.92
2022-10-10T06:51:28.936Z,19.91
2022-10-10T06:52:28.945Z,19.94
2022-10-10T06:53:28.945Z,19.92
2022-10-10T06:54:28.899Z,19.92
2022-10-10T06:55:28.891Z,19.92
2022-10-10T06:56:28.876Z,19.94
2022-10-10T06:57:28.866Z,19.92
2022-10-10T06:58:28.885Z,19.92
2022-10-10T06:59:28.873Z,19.92
2022-10-10T07:00:28.832Z,19.91
2022-10-10T07:01:28.871Z,19.92
2022-10-10T07:02:28.817Z,19.92
2022-10-10T07:03:28.799Z,19.92
2022-10-10T07:04:28.822Z,19.92
2022-10-10T07:05:28.812Z,19.94
2022-10-10T07:06:32.538Z,19.94
2022-10-10T07:07:29.757Z,19.92
2022-10-10T07:08:28.880Z,19.91
2022-10-10T07:09:28.739Z,19.91
2022-10-10T07:10:28.758Z,19.92
2022-10-10T07:11:28.716Z,19.92
2022-10-10T07:12:30.338Z,19.91
2022-10-10T07:13:28.690Z,19.91
2022-10-10T07:14:28.683Z,19.92
2022-10-10T07:15:28.720Z,19.92
2022-10-10T07:16:28.656Z,19.91
2022-10-10T07:17:28.649Z,19.92
2022-10-10T07:18:28.636Z,19.94
2022-10-10T07:19:28.624Z,19.91
2022-10-10T07:20:28.613Z,19.92
2022-10-10T07:21:28.632Z,19.92
2022-10-10T07:22:28.593Z,19.92
2022-10-10T07:23:28.581Z,19.94
2022-10-10T07:24:28.591Z,19.92
2022-10-10T07:25:28.559Z,19.92
2022-10-10T07:26:28.576Z,19.92
2022-10-10T07:27:28.538Z,19.95
2022-10-10T07:28:28.577Z,19.92
2022-10-10T07:29:28.514Z,19.92
2022-10-10T07:30:28.501Z,19.92
2022-10-10T07:31:28.523Z,19.92
2022-10-10T07:32:28.510Z,19.92
2022-10-10T07:33:28.471Z,19.92
2022-10-10T07:34:28.456Z,19.92
2022-10-10T07:35:28.445Z,19.92
2022-10-10T07:36:28.434Z,19.94
2022-10-10T07:37:28.457Z,19.94
2022-10-10T07:38:28.411Z,19.92
2022-10-10T07:39:28.401Z,19.94
2022-10-10T07:40:28.412Z,19.95
2022-10-10T07:41:28.383Z,19.92
2022-10-10T07:42:28.400Z,19.94
2022-10-10T07:43:28.361Z,19.95
2022-10-10T07:44:32.358Z,19.95
2022-10-10T07:45:29.337Z,19.94
2022-10-10T07:46:28.324Z,19.94
2022-10-10T07:47:28.348Z,19.94
2022-10-10T07:48:28.332Z,19.94
2022-10-10T07:49:28.294Z,19.95
2022-10-10T07:50:28.280Z,19.92
2022-10-10T07:51:28.270Z,19.95
2022-10-10T07:52:28.259Z,19.95
2022-10-10T07:53:28.286Z,19.94
2022-10-10T07:54:28.240Z,19.94
2022-10-10T07:55:28.230Z,19.95
2022-10-10T07:56:28.269Z,19.95
2022-10-10T07:57:28.206Z,19.95
2022-10-10T07:58:28.247Z,19.95
2022-10-10T07:59:28.184Z,19.95
2022-10-10T08:00:28.172Z,19.94
2022-10-10T08:01:28.245Z,19.95
2022-10-10T08:02:28.148Z,19.95
2022-10-10T08:03:28.138Z,19.94
2022-10-10T08:04:28.156Z,19.95
2022-10-10T08:05:28.118Z,19.95
2022-10-10T08:06:28.104Z,19.95
2022-10-10T08:07:28.093Z,19.95
2022-10-10T08:08:28.088Z,19.95
2022-10-10T08:09:28.106Z,19.94
2022-10-10T08:10:28.060Z,19.95
2022-10-10T08:11:28.050Z,19.95
2022-10-10T08:12:28.067Z,19.96
2022-10-10T08:13:28.030Z,19.96
2022-10-10T08:14:28.048Z,19.95
2022-10-10T08:15:31.555Z,19.96
2022-10-10T08:16:28.993Z,19.96
2022-10-10T08:17:27.986Z,19.96
2022-10-10T08:18:27.989Z,19.95
2022-10-10T08:19:28.004Z,19.96
2022-10-10T08:20:27.954Z,19.96
2022-10-10T08:21:27.941Z,19.96
2022-10-10T08:22:27.930Z,19.96
2022-10-10T08:23:27.918Z,19.96
2022-10-10T08:24:27.936Z,19.96
2022-10-10T08:25:27.930Z,19.95
2022-10-10T08:26:27.886Z,19.96
2022-10-10T08:27:27.877Z,19.96
2022-10-10T08:28:27.923Z,19.99
2022-10-10T08:29:27.853Z,19.96
2022-10-10T08:30:27.888Z,19.96
2022-10-10T08:31:27.830Z,19.99
2022-10-10T08:32:27.817Z,19.99
2022-10-10T08:33:27.807Z,19.99
2022-10-10T08:34:27.795Z,19.96
2022-10-10T08:35:27.818Z,19.99
2022-10-10T08:36:27.823Z,19.99
2022-10-10T08:37:32.630Z,19.96
2022-10-10T08:38:28.749Z,19.99
2022-10-10T08:39:27.742Z,19.99
2022-10-10T08:40:27.729Z,19.99
2022-10-10T08:41:27.756Z,19.99
2022-10-10T08:42:27.708Z,19.99
2022-10-10T08:43:27.697Z,19.99
2022-10-10T08:44:27.710Z,19.99
2022-10-10T08:45:27.678Z,20.00
2022-10-10T08:46:27.692Z,20.00
2022-10-10T08:47:27.653Z,19.99
2022-10-10T08:48:27.640Z,19.99
2022-10-10T08:49:27.631Z,20.00
2022-10-10T08:50:27.619Z,19.99
2022-10-10T08:51:27.643Z,19.99
2022-10-10T08:52:27.623Z,20.00
2022-10-10T08:53:27.588Z,20.00
2022-10-10T08:54:27.580Z,20.00
2022-10-10T08:55:27.564Z,20.00
2022-10-10T08:56:27.553Z,20.00
2022-10-10T08:57:27.572Z,19.99
2022-10-10T08:58:27.528Z,20.00
2022-10-10T08:59:27.532Z,20.00
2022-10-10T09:00:27.534Z,20.00
2022-10-10T09:01:28.936Z,20.00
2022-10-10T09:02:43.562Z,20.00
2022-10-10T09:03:28.476Z,20.00
2022-10-10T09:04:27.462Z,19.99
2022-10-10T09:05:27.460Z,20.02
2022-10-10T09:06:27.439Z,20.00
2022-10-10T09:07:27.465Z,19.99
2022-10-10T09:08:27.458Z,20.02
2022-10-10T09:09:27.409Z,20.02
2022-10-10T09:10:27.396Z,20.03
2022-10-10T09:11:27.386Z,20.00
2022-10-10T09:12:27.375Z,20.02
2022-10-10T09:13:27.407Z,19.99
2022-10-10T09:14:27.388Z,20.02
2022-10-10T09:15:27.346Z,20.02
2022-10-10T09:16:27.454Z,20.02
2022-10-10T09:17:27.370Z,20.02
2022-10-10T09:18:27.309Z,20.02
2022-10-10T09:19:27.336Z,20.00
2022-10-10T09:20:27.287Z,20.02
2022-10-10T09:21:27.276Z,20.00
2022-10-10T09:22:27.265Z,20.02
2022-10-10T09:23:27.254Z,20.02
2022-10-10T09:24:27.271Z,20.02
2022-10-10T09:25:27.230Z,20.02
2022-10-10T09:26:27.220Z,20.02
2022-10-10T09:27:27.212Z,20.02
2022-10-10T09:28:27.270Z,20.02
2022-10-10T09:29:27.219Z,20.02
2022-10-10T09:30:27.204Z,20.02
2022-10-10T09:31:27.164Z,20.03
2022-10-10T09:32:27.198Z,20.03
2022-10-10T09:33:27.141Z,20.03
2022-10-10T09:34:27.132Z,20.02
2022-10-10T09:35:27.149Z,20.02
2022-10-10T09:36:27.109Z,20.03
2022-10-10T09:37:45.857Z,20.02
2022-10-10T09:38:28.084Z,20.03
2022-10-10T09:39:27.080Z,20.02
2022-10-10T09:40:27.094Z,20.03
2022-10-10T09:41:27.054Z,20.03
2022-10-10T09:42:27.041Z,20.03
2022-10-10T09:43:27.031Z,20.02
2022-10-10T09:44:27.019Z,20.02
2022-10-10T09:45:27.088Z,20.04
2022-10-10T09:46:27.000Z,20.03
2022-10-10T09:47:26.993Z,20.04
2022-10-10T09:48:27.027Z,20.03
2022-10-10T09:49:26.971Z,20.02
2022-10-10T09:50:26.989Z,20.03
2022-10-10T09:51:26.973Z,20.03
2022-10-10T09:52:26.935Z,20.04
2022-10-10T09:53:26.929Z,20.03
2022-10-10T09:54:26.907Z,20.03
2022-10-10T09:55:26.896Z,20.02
2022-10-10T09:56:26.915Z,20.02
2022-10-10T09:57:26.876Z,20.02
2022-10-10T09:58:26.863Z,20.02
2022-10-10T09:59:26.856Z,20.03
2022-10-10T10:00:26.846Z,20.03
2022-10-10T10:01:26.952Z,20.03
2022-10-10T10:02:26.819Z,20.03
2022-10-10T10:03:26.808Z,20.03
2022-10-10T10:04:28.705Z,20.03
2022-10-10T10:05:26.787Z,20.03
2022-10-10T10:06:26.829Z,20.04
2022-10-10T10:07:26.769Z,20.04
2022-10-10T10:08:26.754Z,20.03
2022-10-10T10:09:26.741Z,20.03
2022-10-10T10:10:26.731Z,20.03
2022-10-10T10:11:26.721Z,20.03
2022-10-10T10:12:26.739Z,20.02
2022-10-10T10:13:26.700Z,20.03
2022-10-10T10:14:26.686Z,20.04
2022-10-10T10:15:26.675Z,20.04
2022-10-10T10:16:26.666Z,20.03
2022-10-10T10:17:26.685Z,20.03
2022-10-10T10:18:26.640Z,20.04
2022-10-10T10:19:26.631Z,20.04
2022-10-10T10:20:26.641Z,20.04
2022-10-10T10:21:26.609Z,20.04
2022-10-10T10:22:27.111Z,20.03
2022-10-10T10:23:26.587Z,20.03
2022-10-10T10:24:26.575Z,20.04
2022-10-10T10:25:29.093Z,20.04
2022-10-10T10:26:26.552Z,20.04
2022-10-10T10:27:26.574Z,20.06
2022-10-10T10:28:26.641Z,20.03
2022-10-10T10:29:26.520Z,20.03
2022-10-10T10:30:26.516Z,20.04
2022-10-10T10:31:26.506Z,20.04
2022-10-10T10:32:26.491Z,20.04
2022-10-10T10:33:26.507Z,20.04
2022-10-10T10:34:26.467Z,20.03
2022-10-10T10:35:26.454Z,20.03
2022-10-10T10:36:26.465Z,20.03
2022-10-10T10:37:26.435Z,20.04
2022-10-10T10:38:26.451Z,20.04
2022-10-10T10:39:26.439Z,20.03
2022-10-10T10:40:26.399Z,20.04
2022-10-10T10:41:26.385Z,20.04
2022-10-10T10:42:26.378Z,20.04
2022-10-10T10:43:26.366Z,20.03
2022-10-10T10:44:26.404Z,20.04
2022-10-10T10:45:26.344Z,20.03
2022-10-10T10:46:26.330Z,20.03
2022-10-10T10:47:26.383Z,20.04
2022-10-10T10:48:26.310Z,20.04
2022-10-10T10:49:26.297Z,20.06
2022-10-10T10:50:26.315Z,20.04
2022-10-10T10:51:26.275Z,20.04
2022-10-10T10:52:26.385Z,20.04
2022-10-10T10:53:26.253Z,20.06
2022-10-10T10:54:26.245Z,20.06
2022-10-10T10:55:26.267Z,20.04
2022-10-10T10:56:26.284Z,20.06
2022-10-10T10:57:37.119Z,20.06
2022-10-10T11:01:28.714Z,20.04
2022-10-10T11:01:44.821Z,20.04
2022-10-10T11:02:54.163Z,20.04
2022-10-10T11:05:20.406Z,20.04
2022-10-10T11:05:20.665Z,20.04
2022-10-10T11:05:32.893Z,20.06
2022-10-10T11:06:27.325Z,20.04
2022-10-10T11:07:26.337Z,20.04
2022-10-10T11:08:26.148Z,20.04
2022-10-10T11:09:48.648Z,20.06
2022-10-10T11:10:27.067Z,20.04
2022-10-10T11:11:26.055Z,20.04
2022-10-10T11:12:26.069Z,20.04
2022-10-10T11:13:26.040Z,20.06
2022-10-10T11:14:26.025Z,20.04
2022-10-10T11:15:30.832Z,20.04
2022-10-10T11:17:26.994Z,20.04
2022-10-10T11:18:25.980Z,20.04
2022-10-10T11:19:25.968Z,20.04
2022-10-10T11:20:25.957Z,20.04
2022-10-10T11:21:25.980Z,20.04
2022-10-10T11:22:25.935Z,20.04
2022-10-10T11:23:25.925Z,20.04
2022-10-10T11:24:25.934Z,20.06
2022-10-10T11:25:25.903Z,20.04
2022-10-10T11:26:26.128Z,20.03
2022-10-10T11:27:25.879Z,20.04
2022-10-10T11:28:25.944Z,20.06
2022-10-10T11:29:25.859Z,20.06
2022-10-10T11:30:25.845Z,20.06
2022-10-10T11:31:25.835Z,20.04
2022-10-10T11:32:25.859Z,20.04
2022-10-10T11:33:25.814Z,20.04
2022-10-10T11:34:25.806Z,20.04
2022-10-10T11:35:25.792Z,20.04
2022-10-10T11:36:25.784Z,20.04
2022-10-10T11:37:25.809Z,20.06
2022-10-10T11:38:25.763Z,20.03
2022-10-10T11:39:25.750Z,20.06
2022-10-10T11:40:25.765Z,20.04
2022-10-10T11:41:25.726Z,20.06
2022-10-10T11:42:25.751Z,20.06
2022-10-10T11:43:25.704Z,20.04
2022-10-10T11:44:25.696Z,20.07
2022-10-10T11:45:25.682Z,20.04
2022-10-10T11:46:25.673Z,20.04
2022-10-10T11:47:25.703Z,20.06
2022-10-10T11:48:25.683Z,20.04
2022-10-10T11:49:25.636Z,20.06
2022-10-10T11:50:25.627Z,20.06
2022-10-10T11:51:25.616Z,20.04
2022-10-10T11:52:34.445Z,20.06
2022-10-10T11:53:26.625Z,20.04
2022-10-10T11:54:25.589Z,20.06
2022-10-10T11:55:25.581Z,20.06
2022-10-10T11:56:25.690Z,20.04
2022-10-10T11:57:25.549Z,20.04
2022-10-10T11:58:25.572Z,20.06
2022-10-10T11:59:25.528Z,20.04
2022-10-10T12:00:25.523Z,20.06
2022-10-10T12:01:25.506Z,20.06
2022-10-10T12:02:27.922Z,20.06
2022-10-10T12:03:25.520Z,20.04
2022-10-10T12:04:25.471Z,20.06
2022-10-10T12:05:25.463Z,20.04
2022-10-10T12:06:25.451Z,20.06
2022-10-10T12:07:25.440Z,20.04
2022-10-10T12:08:25.463Z,20.04
2022-10-10T12:09:25.450Z,20.06
2022-10-10T12:10:25.409Z,20.06
2022-10-10T12:11:25.402Z,20.06
2022-10-10T12:12:25.502Z,20.06
2022-10-10T12:13:25.377Z,20.06
2022-10-10T12:14:25.394Z,20.06
2022-10-10T12:15:25.355Z,20.04
2022-10-10T12:16:30.273Z,20.04
2022-10-10T12:17:26.331Z,20.04
2022-10-10T12:18:25.320Z,20.06
2022-10-10T12:19:25.341Z,20.04
2022-10-10T12:20:25.300Z,20.06
2022-10-10T12:21:25.287Z,20.07
2022-10-10T12:22:25.274Z,20.04
2022-10-10T12:23:25.267Z,20.04
2022-10-10T12:24:25.285Z,20.07
2022-10-10T12:25:25.271Z,20.06
2022-10-10T12:26:25.230Z,20.06
2022-10-10T12:27:25.222Z,20.04
2022-10-10T12:28:25.338Z,20.04
2022-10-10T12:29:25.201Z,20.04
2022-10-10T12:30:25.215Z,20.06
2022-10-10T12:31:25.177Z,20.07
2022-10-10T12:32:25.167Z,20.06
2022-10-10T12:33:25.152Z,20.04
2022-10-10T12:34:25.141Z,20.04
2022-10-10T12:35:25.183Z,20.06
2022-10-10T12:36:25.120Z,20.06
2022-10-10T12:37:25.108Z,20.04
2022-10-10T12:38:25.099Z,20.04
2022-10-10T12:39:25.090Z,20.06
2022-10-10T12:40:25.074Z,20.06
2022-10-10T12:41:25.095Z,20.04
2022-10-10T12:42:25.051Z,20.06
2022-10-10T12:43:25.044Z,20.04
2022-10-10T12:44:25.058Z,20.06
2022-10-10T12:45:25.021Z,20.04
2022-10-10T12:46:25.071Z,20.04
2022-10-10T12:47:35.900Z,20.06
2022-10-10T12:48:25.988Z,20.04
2022-10-10T12:49:24.996Z,20.04
2022-10-10T12:50:24.966Z,20.06
2022-10-10T12:51:24.987Z,20.04
2022-10-10T12:52:24.972Z,20.04
2022-10-10T12:53:24.933Z,20.04
2022-10-10T12:54:24.925Z,20.04
2022-10-10T12:55:24.914Z,20.04